sensor_id;sensor_type;location;lat;lon;timestamp;P1;durP1;ratioP1;P2;durP2;ratioP2
16407;SDS011;8313;49.894;8.084;2023-11-21T00:01:54;1.20;;;1.10;;
16407;SDS011;8313;49.894;8.084;2023-11-21T00:04:20;1.23;;;0.90;;
16407;SDS011;8313;49.894;8.084;2023-11-21T00:06:46;3.33;;;1.27;;
16407;SDS011;8313;49.894;8.084;2023-11-21T00:09:12;1.63;;;1.27;;
16407;SDS011;8313;49.894;8.084;2023-11-21T00:11:40;1.07;;;0.97;;
16407;SDS011;8313;49.894;8.084;2023-11-21T00:14:06;1.10;;;1.00;;
16407;SDS011;8313;49.894;8.084;2023-11-21T00:16:33;3.10;;;1.33;;
16407;SDS011;8313;49.894;8.084;2023-11-21T00:18:59;4.20;;;1.20;;
16407;SDS011;8313;49.894;8.084;2023-11-21T00:21:25;1.30;;;1.20;;
16407;SDS011;8313;49.894;8.084;2023-11-21T00:23:50;1.13;;;1.00;;
16407;SDS011;8313;49.894;8.084;2023-11-21T00:26:16;1.30;;;1.20;;
16407;SDS011;8313;49.894;8.084;2023-11-21T00:28:46;1.17;;;1.07;;
16407;SDS011;8313;49.894;8.084;2023-11-21T00:31:12;11.00;;;1.27;;
16407;SDS011;8313;49.894;8.084;2023-11-21T00:33:38;1.47;;;0.97;;
16407;SDS011;8313;49.894;8.084;2023-11-21T00:36:04;2.67;;;1.23;;
16407;SDS011;8313;49.894;8.084;2023-11-21T00:38:34;1.97;;;1.10;;
16407;SDS011;8313;49.894;8.084;2023-11-21T00:41:01;1.23;;;1.10;;
16407;SDS011;8313;49.894;8.084;2023-11-21T00:43:28;1.47;;;1.13;;
16407;SDS011;8313;49.894;8.084;2023-11-21T00:45:53;1.43;;;0.97;;
16407;SDS011;8313;49.894;8.084;2023-11-21T00:48:19;2.23;;;1.00;;
16407;SDS011;8313;49.894;8.084;2023-11-21T00:50:45;1.03;;;0.87;;
16407;SDS011;8313;49.894;8.084;2023-11-21T00:53:10;0.90;;;0.90;;
16407;SDS011;8313;49.894;8.084;2023-11-21T00:55:36;1.40;;;1.10;;
16407;SDS011;8313;49.894;8.084;2023-11-21T00:58:05;2.13;;;1.30;;
16407;SDS011;8313;49.894;8.084;2023-11-21T01:00:32;2.23;;;0.67;;
16407;SDS011;8313;49.894;8.084;2023-11-21T01:02:58;1.10;;;1.00;;
16407;SDS011;8313;49.894;8.084;2023-11-21T01:05:25;0.90;;;0.80;;
16407;SDS011;8313;49.894;8.084;2023-11-21T01:07:51;0.70;;;0.70;;
16407;SDS011;8313;49.894;8.084;2023-11-21T01:10:17;0.80;;;0.80;;
16407;SDS011;8313;49.894;8.084;2023-11-21T01:12:43;1.23;;;0.90;;
16407;SDS011;8313;49.894;8.084;2023-11-21T01:15:09;0.83;;;0.83;;
16407;SDS011;8313;49.894;8.084;2023-11-21T01:17:37;2.03;;;1.37;;
16407;SDS011;8313;49.894;8.084;2023-11-21T01:20:03;2.40;;;1.07;;
16407;SDS011;8313;49.894;8.084;2023-11-21T01:22:36;0.73;;;0.73;;
16407;SDS011;8313;49.894;8.084;2023-11-21T01:25:02;1.27;;;1.10;;
16407;SDS011;8313;49.894;8.084;2023-11-21T01:27:32;1.43;;;1.00;;
16407;SDS011;8313;49.894;8.084;2023-11-21T01:29:59;1.07;;;1.07;;
16407;SDS011;8313;49.894;8.084;2023-11-21T01:32:25;1.50;;;1.20;;
16407;SDS011;8313;49.894;8.084;2023-11-21T01:34:50;2.07;;;1.30;;
16407;SDS011;8313;49.894;8.084;2023-11-21T01:37:16;1.03;;;0.93;;
16407;SDS011;8313;49.894;8.084;2023-11-21T01:39:45;1.70;;;1.10;;
16407;SDS011;8313;49.894;8.084;2023-11-21T01:42:12;1.67;;;1.40;;
16407;SDS011;8313;49.894;8.084;2023-11-21T01:44:39;2.70;;;1.20;;
16407;SDS011;8313;49.894;8.084;2023-11-21T01:47:05;1.03;;;0.90;;
16407;SDS011;8313;49.894;8.084;2023-11-21T01:49:32;1.23;;;1.03;;
16407;SDS011;8313;49.894;8.084;2023-11-21T01:51:58;1.93;;;1.00;;
16407;SDS011;8313;49.894;8.084;2023-11-21T01:54:24;1.30;;;1.10;;
16407;SDS011;8313;49.894;8.084;2023-11-21T01:56:51;1.60;;;1.50;;
16407;SDS011;8313;49.894;8.084;2023-11-21T01:59:20;1.43;;;1.33;;
16407;SDS011;8313;49.894;8.084;2023-11-21T02:01:47;1.53;;;1.43;;
16407;SDS011;8313;49.894;8.084;2023-11-21T02:04:15;3.03;;;1.50;;
16407;SDS011;8313;49.894;8.084;2023-11-21T02:06:41;1.77;;;1.67;;
16407;SDS011;8313;49.894;8.084;2023-11-21T02:09:07;2.00;;;1.50;;
16407;SDS011;8313;49.894;8.084;2023-11-21T02:11:34;2.37;;;1.60;;
16407;SDS011;8313;49.894;8.084;2023-11-21T02:14:00;1.60;;;1.50;;
16407;SDS011;8313;49.894;8.084;2023-11-21T02:16:26;1.33;;;1.23;;
16407;SDS011;8313;49.894;8.084;2023-11-21T02:18:52;1.40;;;1.30;;
16407;SDS011;8313;49.894;8.084;2023-11-21T02:21:18;1.57;;;1.47;;
16407;SDS011;8313;49.894;8.084;2023-11-21T02:23:47;1.20;;;1.13;;
16407;SDS011;8313;49.894;8.084;2023-11-21T02:26:13;1.73;;;1.63;;
16407;SDS011;8313;49.894;8.084;2023-11-21T02:28:39;1.80;;;1.47;;
16407;SDS011;8313;49.894;8.084;2023-11-21T02:31:05;2.30;;;1.83;;
16407;SDS011;8313;49.894;8.084;2023-11-21T02:33:33;3.40;;;2.20;;
16407;SDS011;8313;49.894;8.084;2023-11-21T02:36:02;2.70;;;2.10;;
16407;SDS011;8313;49.894;8.084;2023-11-21T02:38:28;2.43;;;1.70;;
16407;SDS011;8313;49.894;8.084;2023-11-21T02:40:55;3.47;;;2.20;;
16407;SDS011;8313;49.894;8.084;2023-11-21T02:43:22;2.77;;;2.10;;
16407;SDS011;8313;49.894;8.084;2023-11-21T02:45:48;4.73;;;2.70;;
16407;SDS011;8313;49.894;8.084;2023-11-21T02:48:13;2.97;;;1.90;;
16407;SDS011;8313;49.894;8.084;2023-11-21T02:50:39;1.97;;;1.87;;
16407;SDS011;8313;49.894;8.084;2023-11-21T02:53:04;5.30;;;3.03;;
16407;SDS011;8313;49.894;8.084;2023-11-21T02:55:33;4.00;;;2.90;;
16407;SDS011;8313;49.894;8.084;2023-11-21T02:58:01;4.73;;;2.07;;
16407;SDS011;8313;49.894;8.084;2023-11-21T03:00:29;2.90;;;2.70;;
16407;SDS011;8313;49.894;8.084;2023-11-21T03:02:55;5.20;;;2.80;;
16407;SDS011;8313;49.894;8.084;2023-11-21T03:05:21;4.57;;;3.30;;
16407;SDS011;8313;49.894;8.084;2023-11-21T03:07:47;3.33;;;3.00;;
16407;SDS011;8313;49.894;8.084;2023-11-21T03:10:12;5.10;;;3.00;;
16407;SDS011;8313;49.894;8.084;2023-11-21T03:12:38;3.20;;;2.90;;
16407;SDS011;8313;49.894;8.084;2023-11-21T03:15:05;4.50;;;2.83;;
16407;SDS011;8313;49.894;8.084;2023-11-21T03:17:31;3.73;;;3.40;;
16407;SDS011;8313;49.894;8.084;2023-11-21T03:19:59;3.57;;;3.20;;
16407;SDS011;8313;49.894;8.084;2023-11-21T03:22:25;3.70;;;3.10;;
16407;SDS011;8313;49.894;8.084;2023-11-21T03:24:51;4.80;;;3.03;;
16407;SDS011;8313;49.894;8.084;2023-11-21T03:27:17;3.70;;;2.70;;
16407;SDS011;8313;49.894;8.084;2023-11-21T03:29:43;4.80;;;3.23;;
16407;SDS011;8313;49.894;8.084;2023-11-21T03:32:11;3.97;;;3.27;;
16407;SDS011;8313;49.894;8.084;2023-11-21T03:34:52;4.70;;;3.40;;
16407;SDS011;8313;49.894;8.084;2023-11-21T03:37:21;8.33;;;3.90;;
16407;SDS011;8313;49.894;8.084;2023-11-21T03:39:47;5.83;;;3.37;;
16407;SDS011;8313;49.894;8.084;2023-11-21T03:42:13;7.17;;;2.80;;
16407;SDS011;8313;49.894;8.084;2023-11-21T03:44:39;3.70;;;3.03;;
16407;SDS011;8313;49.894;8.084;2023-11-21T03:47:04;3.70;;;3.00;;
16407;SDS011;8313;49.894;8.084;2023-11-21T03:49:30;3.87;;;2.80;;
16407;SDS011;8313;49.894;8.084;2023-11-21T03:51:56;5.67;;;3.23;;
16407;SDS011;8313;49.894;8.084;2023-11-21T03:54:22;3.97;;;2.70;;
16407;SDS011;8313;49.894;8.084;2023-11-21T03:56:47;4.10;;;2.97;;
16407;SDS011;8313;49.894;8.084;2023-11-21T03:59:14;7.10;;;2.90;;
16407;SDS011;8313;49.894;8.084;2023-11-21T04:01:40;3.53;;;2.87;;
16407;SDS011;8313;49.894;8.084;2023-11-21T04:04:05;3.93;;;2.97;;
16407;SDS011;8313;49.894;8.084;2023-11-21T04:06:31;2.70;;;2.00;;
16407;SDS011;8313;49.894;8.084;2023-11-21T04:08:58;2.63;;;1.97;;
16407;SDS011;8313;49.894;8.084;2023-11-21T04:11:23;2.30;;;1.80;;
16407;SDS011;8313;49.894;8.084;2023-11-21T04:13:49;2.00;;;1.80;;
16407;SDS011;8313;49.894;8.084;2023-11-21T04:16:15;2.97;;;2.27;;
16407;SDS011;8313;49.894;8.084;2023-11-21T04:18:41;3.27;;;2.27;;
16407;SDS011;8313;49.894;8.084;2023-11-21T04:21:07;3.13;;;2.17;;
16407;SDS011;8313;49.894;8.084;2023-11-21T04:23:33;3.40;;;2.53;;
16407;SDS011;8313;49.894;8.084;2023-11-21T04:25:59;3.77;;;2.27;;
16407;SDS011;8313;49.894;8.084;2023-11-21T04:28:27;3.63;;;2.23;;
16407;SDS011;8313;49.894;8.084;2023-11-21T04:30:52;2.90;;;1.93;;
16407;SDS011;8313;49.894;8.084;2023-11-21T04:33:18;1.90;;;1.70;;
16407;SDS011;8313;49.894;8.084;2023-11-21T04:35:44;3.07;;;2.30;;
16407;SDS011;8313;49.894;8.084;2023-11-21T04:38:10;2.17;;;1.97;;
16407;SDS011;8313;49.894;8.084;2023-11-21T04:40:36;2.17;;;1.57;;
16407;SDS011;8313;49.894;8.084;2023-11-21T04:43:01;1.77;;;1.53;;
16407;SDS011;8313;49.894;8.084;2023-11-21T04:45:29;1.30;;;1.10;;
16407;SDS011;8313;49.894;8.084;2023-11-21T04:47:54;2.30;;;1.83;;
16407;SDS011;8313;49.894;8.084;2023-11-21T04:50:20;3.00;;;1.90;;
16407;SDS011;8313;49.894;8.084;2023-11-21T04:52:46;4.80;;;2.57;;
16407;SDS011;8313;49.894;8.084;2023-11-21T04:55:12;4.87;;;2.20;;
16407;SDS011;8313;49.894;8.084;2023-11-21T04:57:38;2.90;;;1.93;;
16407;SDS011;8313;49.894;8.084;2023-11-21T05:00:06;2.57;;;2.37;;
16407;SDS011;8313;49.894;8.084;2023-11-21T05:02:34;2.20;;;2.00;;
16407;SDS011;8313;49.894;8.084;2023-11-21T05:05:00;3.40;;;2.10;;
16407;SDS011;8313;49.894;8.084;2023-11-21T05:07:27;2.60;;;2.17;;
16407;SDS011;8313;49.894;8.084;2023-11-21T05:09:55;3.63;;;2.10;;
16407;SDS011;8313;49.894;8.084;2023-11-21T05:12:24;3.80;;;2.10;;
16407;SDS011;8313;49.894;8.084;2023-11-21T05:14:50;3.80;;;2.00;;
16407;SDS011;8313;49.894;8.084;2023-11-21T05:17:16;1.77;;;1.27;;
16407;SDS011;8313;49.894;8.084;2023-11-21T05:19:42;1.87;;;1.47;;
16407;SDS011;8313;49.894;8.084;2023-11-21T05:22:10;2.20;;;1.40;;
16407;SDS011;8313;49.894;8.084;2023-11-21T05:24:37;1.17;;;1.07;;
16407;SDS011;8313;49.894;8.084;2023-11-21T05:27:04;1.70;;;1.37;;
16407;SDS011;8313;49.894;8.084;2023-11-21T05:29:30;2.07;;;1.80;;
16407;SDS011;8313;49.894;8.084;2023-11-21T05:31:56;1.47;;;1.37;;
16407;SDS011;8313;49.894;8.084;2023-11-21T05:34:22;2.10;;;1.90;;
16407;SDS011;8313;49.894;8.084;2023-11-21T05:36:49;1.80;;;1.70;;
16407;SDS011;8313;49.894;8.084;2023-11-21T05:39:15;1.90;;;1.70;;
16407;SDS011;8313;49.894;8.084;2023-11-21T05:41:42;5.30;;;2.63;;
16407;SDS011;8313;49.894;8.084;2023-11-21T05:44:08;3.30;;;1.83;;
16407;SDS011;8313;49.894;8.084;2023-11-21T05:46:34;2.20;;;2.00;;
16407;SDS011;8313;49.894;8.084;2023-11-21T05:49:00;2.30;;;1.97;;
16407;SDS011;8313;49.894;8.084;2023-11-21T05:51:25;4.00;;;2.50;;
16407;SDS011;8313;49.894;8.084;2023-11-21T05:53:51;2.80;;;2.07;;
16407;SDS011;8313;49.894;8.084;2023-11-21T05:56:17;2.57;;;2.37;;
16407;SDS011;8313;49.894;8.084;2023-11-21T05:58:43;4.07;;;2.20;;
16407;SDS011;8313;49.894;8.084;2023-11-21T06:01:08;3.00;;;2.73;;
16407;SDS011;8313;49.894;8.084;2023-11-21T06:03:37;3.00;;;2.30;;
16407;SDS011;8313;49.894;8.084;2023-11-21T06:06:03;3.03;;;2.30;;
16407;SDS011;8313;49.894;8.084;2023-11-21T06:08:30;3.50;;;2.53;;
16407;SDS011;8313;49.894;8.084;2023-11-21T06:10:55;2.50;;;2.17;;
16407;SDS011;8313;49.894;8.084;2023-11-21T06:13:21;4.70;;;2.60;;
16407;SDS011;8313;49.894;8.084;2023-11-21T06:15:49;4.20;;;3.00;;
16407;SDS011;8313;49.894;8.084;2023-11-21T06:18:16;3.80;;;2.80;;
16407;SDS011;8313;49.894;8.084;2023-11-21T06:20:44;4.30;;;2.57;;
16407;SDS011;8313;49.894;8.084;2023-11-21T06:23:10;3.20;;;2.30;;
16407;SDS011;8313;49.894;8.084;2023-11-21T06:25:36;3.43;;;2.80;;
16407;SDS011;8313;49.894;8.084;2023-11-21T06:28:02;3.63;;;2.30;;
16407;SDS011;8313;49.894;8.084;2023-11-21T06:30:27;4.70;;;2.97;;
16407;SDS011;8313;49.894;8.084;2023-11-21T06:32:54;3.67;;;2.80;;
16407;SDS011;8313;49.894;8.084;2023-11-21T06:35:21;2.90;;;2.40;;
16407;SDS011;8313;49.894;8.084;2023-11-21T06:37:47;6.43;;;2.40;;
16407;SDS011;8313;49.894;8.084;2023-11-21T06:40:13;2.97;;;2.43;;
16407;SDS011;8313;49.894;8.084;2023-11-21T06:42:43;2.70;;;2.33;;
16407;SDS011;8313;49.894;8.084;2023-11-21T06:45:09;2.07;;;1.70;;
16407;SDS011;8313;49.894;8.084;2023-11-21T06:47:36;2.40;;;2.07;;
16407;SDS011;8313;49.894;8.084;2023-11-21T06:50:03;2.90;;;2.10;;
16407;SDS011;8313;49.894;8.084;2023-11-21T06:52:29;4.00;;;2.10;;
16407;SDS011;8313;49.894;8.084;2023-11-21T06:54:54;2.50;;;1.90;;
16407;SDS011;8313;49.894;8.084;2023-11-21T06:57:20;1.67;;;1.53;;
16407;SDS011;8313;49.894;8.084;2023-11-21T06:59:48;2.07;;;1.83;;
16407;SDS011;8313;49.894;8.084;2023-11-21T07:02:15;3.27;;;2.50;;
16407;SDS011;8313;49.894;8.084;2023-11-21T07:04:44;3.37;;;1.90;;
16407;SDS011;8313;49.894;8.084;2023-11-21T07:07:11;2.60;;;2.20;;
16407;SDS011;8313;49.894;8.084;2023-11-21T07:09:37;2.70;;;2.00;;
16407;SDS011;8313;49.894;8.084;2023-11-21T07:12:03;3.30;;;2.10;;
16407;SDS011;8313;49.894;8.084;2023-11-21T07:14:31;2.63;;;2.00;;
16407;SDS011;8313;49.894;8.084;2023-11-21T07:16:57;2.83;;;1.70;;
16407;SDS011;8313;49.894;8.084;2023-11-21T07:19:22;2.40;;;2.20;;
16407;SDS011;8313;49.894;8.084;2023-11-21T07:21:48;2.90;;;2.40;;
16407;SDS011;8313;49.894;8.084;2023-11-21T07:24:17;2.40;;;2.13;;
16407;SDS011;8313;49.894;8.084;2023-11-21T07:26:43;2.80;;;1.90;;
16407;SDS011;8313;49.894;8.084;2023-11-21T07:29:09;3.27;;;2.47;;
16407;SDS011;8313;49.894;8.084;2023-11-21T07:31:36;3.27;;;2.40;;
16407;SDS011;8313;49.894;8.084;2023-11-21T07:34:03;2.37;;;2.17;;
16407;SDS011;8313;49.894;8.084;2023-11-21T07:36:29;2.90;;;2.30;;
16407;SDS011;8313;49.894;8.084;2023-11-21T07:38:54;2.80;;;1.97;;
16407;SDS011;8313;49.894;8.084;2023-11-21T07:41:20;2.47;;;2.27;;
16407;SDS011;8313;49.894;8.084;2023-11-21T07:43:46;1.90;;;1.80;;
16407;SDS011;8313;49.894;8.084;2023-11-21T07:46:12;2.00;;;1.90;;
16407;SDS011;8313;49.894;8.084;2023-11-21T07:48:38;2.17;;;1.97;;
16407;SDS011;8313;49.894;8.084;2023-11-21T07:51:04;2.57;;;2.07;;
16407;SDS011;8313;49.894;8.084;2023-11-21T07:53:30;2.20;;;1.80;;
16407;SDS011;8313;49.894;8.084;2023-11-21T07:55:56;2.57;;;2.37;;
16407;SDS011;8313;49.894;8.084;2023-11-21T07:58:23;1.63;;;1.53;;
16407;SDS011;8313;49.894;8.084;2023-11-21T08:00:49;1.90;;;1.40;;
16407;SDS011;8313;49.894;8.084;2023-11-21T08:03:15;2.03;;;1.93;;
16407;SDS011;8313;49.894;8.084;2023-11-21T08:05:41;1.60;;;1.50;;
16407;SDS011;8313;49.894;8.084;2023-11-21T08:08:07;2.20;;;2.00;;
16407;SDS011;8313;49.894;8.084;2023-11-21T08:10:33;2.00;;;1.73;;
16407;SDS011;8313;49.894;8.084;2023-11-21T08:13:00;1.50;;;1.20;;
16407;SDS011;8313;49.894;8.084;2023-11-21T08:15:26;1.67;;;1.57;;
16407;SDS011;8313;49.894;8.084;2023-11-21T08:17:52;1.73;;;1.43;;
16407;SDS011;8313;49.894;8.084;2023-11-21T08:20:18;2.33;;;1.60;;
16407;SDS011;8313;49.894;8.084;2023-11-21T08:22:43;2.50;;;1.23;;
16407;SDS011;8313;49.894;8.084;2023-11-21T08:25:09;1.53;;;1.43;;
16407;SDS011;8313;49.894;8.084;2023-11-21T08:27:35;1.27;;;1.07;;
16407;SDS011;8313;49.894;8.084;2023-11-21T08:30:04;1.87;;;1.60;;
16407;SDS011;8313;49.894;8.084;2023-11-21T08:32:31;1.43;;;1.33;;
16407;SDS011;8313;49.894;8.084;2023-11-21T08:34:58;3.07;;;1.17;;
16407;SDS011;8313;49.894;8.084;2023-11-21T08:37:24;1.60;;;1.50;;
16407;SDS011;8313;49.894;8.084;2023-11-21T08:39:52;1.40;;;1.30;;
16407;SDS011;8313;49.894;8.084;2023-11-21T08:42:18;2.07;;;1.50;;
16407;SDS011;8313;49.894;8.084;2023-11-21T08:44:44;1.50;;;1.40;;
16407;SDS011;8313;49.894;8.084;2023-11-21T08:47:11;1.73;;;1.57;;
16407;SDS011;8313;49.894;8.084;2023-11-21T08:49:37;1.53;;;1.40;;
16407;SDS011;8313;49.894;8.084;2023-11-21T08:52:03;1.67;;;1.43;;
16407;SDS011;8313;49.894;8.084;2023-11-21T08:54:30;3.97;;;1.30;;
16407;SDS011;8313;49.894;8.084;2023-11-21T08:56:56;2.10;;;1.70;;
16407;SDS011;8313;49.894;8.084;2023-11-21T08:59:24;2.60;;;1.80;;
16407;SDS011;8313;49.894;8.084;2023-11-21T09:01:50;2.27;;;1.70;;
16407;SDS011;8313;49.894;8.084;2023-11-21T09:04:16;4.80;;;1.90;;
16407;SDS011;8313;49.894;8.084;2023-11-21T09:06:41;4.40;;;2.00;;
16407;SDS011;8313;49.894;8.084;2023-11-21T09:09:07;2.50;;;2.23;;
16407;SDS011;8313;49.894;8.084;2023-11-21T09:11:35;2.93;;;2.33;;
16407;SDS011;8313;49.894;8.084;2023-11-21T09:14:01;2.20;;;2.00;;
16407;SDS011;8313;49.894;8.084;2023-11-21T09:16:28;2.03;;;1.90;;
16407;SDS011;8313;49.894;8.084;2023-11-21T09:18:54;2.57;;;1.63;;
16407;SDS011;8313;49.894;8.084;2023-11-21T09:21:19;2.10;;;1.87;;
16407;SDS011;8313;49.894;8.084;2023-11-21T09:23:45;2.03;;;1.80;;
16407;SDS011;8313;49.894;8.084;2023-11-21T09:26:11;1.40;;;1.23;;
16407;SDS011;8313;49.894;8.084;2023-11-21T09:28:37;1.57;;;1.27;;
16407;SDS011;8313;49.894;8.084;2023-11-21T09:31:04;1.20;;;1.10;;
16407;SDS011;8313;49.894;8.084;2023-11-21T09:33:30;2.30;;;1.60;;
16407;SDS011;8313;49.894;8.084;2023-11-21T09:35:56;1.40;;;1.30;;
16407;SDS011;8313;49.894;8.084;2023-11-21T09:38:22;2.30;;;1.70;;
16407;SDS011;8313;49.894;8.084;2023-11-21T09:40:48;1.40;;;1.17;;
16407;SDS011;8313;49.894;8.084;2023-11-21T09:43:18;2.00;;;1.80;;
16407;SDS011;8313;49.894;8.084;2023-11-21T09:45:47;1.37;;;1.27;;
16407;SDS011;8313;49.894;8.084;2023-11-21T09:48:19;2.10;;;1.40;;
16407;SDS011;8313;49.894;8.084;2023-11-21T09:50:46;2.60;;;1.53;;
16407;SDS011;8313;49.894;8.084;2023-11-21T09:55:50;1.63;;;1.53;;
16407;SDS011;8313;49.894;8.084;2023-11-21T09:58:17;1.23;;;1.10;;
16407;SDS011;8313;49.894;8.084;2023-11-21T10:00:45;1.80;;;1.70;;
16407;SDS011;8313;49.894;8.084;2023-11-21T10:03:11;3.53;;;1.60;;
16407;SDS011;8313;49.894;8.084;2023-11-21T10:05:38;2.20;;;1.90;;
16407;SDS011;8313;49.894;8.084;2023-11-21T10:08:07;2.30;;;1.37;;
16407;SDS011;8313;49.894;8.084;2023-11-21T10:10:35;1.60;;;1.50;;
16407;SDS011;8313;49.894;8.084;2023-11-21T10:13:02;3.63;;;1.70;;
16407;SDS011;8313;49.894;8.084;2023-11-21T10:15:33;2.13;;;1.60;;
16407;SDS011;8313;49.894;8.084;2023-11-21T10:18:03;2.97;;;1.90;;
16407;SDS011;8313;49.894;8.084;2023-11-21T10:20:31;5.17;;;1.73;;
16407;SDS011;8313;49.894;8.084;2023-11-21T10:22:58;2.97;;;1.60;;
16407;SDS011;8313;49.894;8.084;2023-11-21T10:25:27;1.60;;;1.50;;
16407;SDS011;8313;49.894;8.084;2023-11-21T10:28:01;2.70;;;2.30;;
16407;SDS011;8313;49.894;8.084;2023-11-21T10:30:36;2.93;;;1.70;;
16407;SDS011;8313;49.894;8.084;2023-11-21T10:33:07;5.93;;;2.13;;
16407;SDS011;8313;49.894;8.084;2023-11-21T10:35:42;2.20;;;2.00;;
16407;SDS011;8313;49.894;8.084;2023-11-21T10:38:12;2.23;;;2.03;;
16407;SDS011;8313;49.894;8.084;2023-11-21T10:40:40;1.80;;;1.60;;
16407;SDS011;8313;49.894;8.084;2023-11-21T10:43:07;2.53;;;1.87;;
16407;SDS011;8313;49.894;8.084;2023-11-21T10:45:34;1.87;;;1.77;;
16407;SDS011;8313;49.894;8.084;2023-11-21T10:48:04;1.60;;;1.50;;
16407;SDS011;8313;49.894;8.084;2023-11-21T10:50:32;2.93;;;2.20;;
16407;SDS011;8313;49.894;8.084;2023-11-21T10:53:00;2.10;;;1.90;;
16407;SDS011;8313;49.894;8.084;2023-11-21T10:55:27;1.87;;;1.43;;
16407;SDS011;8313;49.894;8.084;2023-11-21T10:57:53;3.73;;;1.90;;
16407;SDS011;8313;49.894;8.084;2023-11-21T11:00:21;3.43;;;2.07;;
16407;SDS011;8313;49.894;8.084;2023-11-21T11:02:51;4.13;;;1.80;;
16407;SDS011;8313;49.894;8.084;2023-11-21T11:05:20;4.13;;;2.40;;
16407;SDS011;8313;49.894;8.084;2023-11-21T11:07:50;3.70;;;2.37;;
16407;SDS011;8313;49.894;8.084;2023-11-21T11:10:20;2.40;;;1.73;;
16407;SDS011;8313;49.894;8.084;2023-11-21T11:12:48;8.03;;;2.03;;
16407;SDS011;8313;49.894;8.084;2023-11-21T11:15:15;2.50;;;1.73;;
16407;SDS011;8313;49.894;8.084;2023-11-21T11:17:41;3.10;;;1.90;;
16407;SDS011;8313;49.894;8.084;2023-11-21T11:20:10;3.03;;;1.87;;
16407;SDS011;8313;49.894;8.084;2023-11-21T11:26:05;2.70;;;2.33;;
16407;SDS011;8313;49.894;8.084;2023-11-21T11:28:38;4.10;;;2.23;;
16407;SDS011;8313;49.894;8.084;2023-11-21T11:31:22;2.13;;;1.80;;
16407;SDS011;8313;49.894;8.084;2023-11-21T11:36:41;2.77;;;2.50;;
16407;SDS011;8313;49.894;8.084;2023-11-21T11:39:27;3.97;;;2.20;;
16407;SDS011;8313;49.894;8.084;2023-11-21T11:41:55;2.70;;;1.80;;
16407;SDS011;8313;49.894;8.084;2023-11-21T11:47:18;2.87;;;2.60;;
16407;SDS011;8313;49.894;8.084;2023-11-21T11:52:43;2.47;;;2.27;;
16407;SDS011;8313;49.894;8.084;2023-11-21T11:55:10;3.37;;;2.30;;
16407;SDS011;8313;49.894;8.084;2023-11-21T11:57:43;2.20;;;2.00;;
16407;SDS011;8313;49.894;8.084;2023-11-21T12:00:10;2.40;;;2.13;;
16407;SDS011;8313;49.894;8.084;2023-11-21T12:02:41;3.00;;;2.70;;
16407;SDS011;8313;49.894;8.084;2023-11-21T12:05:10;4.93;;;3.27;;
16407;SDS011;8313;49.894;8.084;2023-11-21T12:10:13;2.87;;;2.23;;
16407;SDS011;8313;49.894;8.084;2023-11-21T12:12:43;2.10;;;1.90;;
16407;SDS011;8313;49.894;8.084;2023-11-21T12:15:11;3.33;;;2.07;;
16407;SDS011;8313;49.894;8.084;2023-11-21T12:17:38;3.57;;;2.47;;
16407;SDS011;8313;49.894;8.084;2023-11-21T12:20:04;6.10;;;2.87;;
16407;SDS011;8313;49.894;8.084;2023-11-21T12:22:39;2.30;;;2.10;;
16407;SDS011;8313;49.894;8.084;2023-11-21T12:27:43;3.17;;;2.10;;
16407;SDS011;8313;49.894;8.084;2023-11-21T12:30:14;4.50;;;2.67;;
16407;SDS011;8313;49.894;8.084;2023-11-21T12:32:47;2.93;;;2.63;;
16407;SDS011;8313;49.894;8.084;2023-11-21T12:35:15;2.80;;;2.27;;
16407;SDS011;8313;49.894;8.084;2023-11-21T12:37:44;2.67;;;2.30;;
16407;SDS011;8313;49.894;8.084;2023-11-21T12:40:12;5.17;;;2.87;;
16407;SDS011;8313;49.894;8.084;2023-11-21T12:42:46;4.90;;;2.60;;
16407;SDS011;8313;49.894;8.084;2023-11-21T12:47:45;4.60;;;2.70;;
16407;SDS011;8313;49.894;8.084;2023-11-21T12:50:18;3.97;;;2.10;;
16407;SDS011;8313;49.894;8.084;2023-11-21T12:52:58;2.37;;;2.07;;
16407;SDS011;8313;49.894;8.084;2023-11-21T12:55:37;2.33;;;2.03;;
16407;SDS011;8313;49.894;8.084;2023-11-21T12:58:04;4.20;;;2.47;;
16407;SDS011;8313;49.894;8.084;2023-11-21T13:00:35;2.63;;;2.13;;
16407;SDS011;8313;49.894;8.084;2023-11-21T13:03:05;2.30;;;2.10;;
16407;SDS011;8313;49.894;8.084;2023-11-21T13:05:33;3.17;;;2.30;;
16407;SDS011;8313;49.894;8.084;2023-11-21T13:08:14;3.93;;;2.30;;
16407;SDS011;8313;49.894;8.084;2023-11-21T13:10:44;2.77;;;2.30;;
16407;SDS011;8313;49.894;8.084;2023-11-21T13:13:12;4.80;;;2.77;;
16407;SDS011;8313;49.894;8.084;2023-11-21T13:15:48;5.10;;;3.00;;
16407;SDS011;8313;49.894;8.084;2023-11-21T13:18:14;2.87;;;2.33;;
16407;SDS011;8313;49.894;8.084;2023-11-21T13:20:41;7.37;;;3.47;;
16407;SDS011;8313;49.894;8.084;2023-11-21T13:23:08;3.77;;;2.80;;
16407;SDS011;8313;49.894;8.084;2023-11-21T13:25:37;5.43;;;4.00;;
16407;SDS011;8313;49.894;8.084;2023-11-21T13:28:06;8.73;;;2.97;;
16407;SDS011;8313;49.894;8.084;2023-11-21T13:30:32;4.10;;;3.07;;
16407;SDS011;8313;49.894;8.084;2023-11-21T13:33:01;3.03;;;2.70;;
16407;SDS011;8313;49.894;8.084;2023-11-21T13:35:30;4.63;;;3.00;;
16407;SDS011;8313;49.894;8.084;2023-11-21T13:38:04;8.00;;;3.10;;
16407;SDS011;8313;49.894;8.084;2023-11-21T13:40:31;9.57;;;2.90;;
16407;SDS011;8313;49.894;8.084;2023-11-21T13:43:05;4.47;;;3.20;;
16407;SDS011;8313;49.894;8.084;2023-11-21T13:45:35;11.30;;;3.50;;
16407;SDS011;8313;49.894;8.084;2023-11-21T13:48:07;3.90;;;3.00;;
16407;SDS011;8313;49.894;8.084;2023-11-21T13:50:44;3.50;;;2.97;;
16407;SDS011;8313;49.894;8.084;2023-11-21T13:53:32;5.00;;;2.93;;
16407;SDS011;8313;49.894;8.084;2023-11-21T13:56:03;3.97;;;2.80;;
16407;SDS011;8313;49.894;8.084;2023-11-21T13:58:29;3.27;;;2.97;;
16407;SDS011;8313;49.894;8.084;2023-11-21T14:01:14;4.73;;;2.53;;
16407;SDS011;8313;49.894;8.084;2023-11-21T14:04:09;8.70;;;2.50;;
16407;SDS011;8313;49.894;8.084;2023-11-21T14:06:47;6.20;;;3.27;;
16407;SDS011;8313;49.894;8.084;2023-11-21T14:09:23;3.23;;;2.60;;
16407;SDS011;8313;49.894;8.084;2023-11-21T14:11:56;8.00;;;3.80;;
16407;SDS011;8313;49.894;8.084;2023-11-21T14:14:26;3.90;;;3.23;;
16407;SDS011;8313;49.894;8.084;2023-11-21T14:16:55;6.90;;;3.27;;
16407;SDS011;8313;49.894;8.084;2023-11-21T14:19:22;7.73;;;2.93;;
16407;SDS011;8313;49.894;8.084;2023-11-21T14:21:52;8.27;;;3.27;;
16407;SDS011;8313;49.894;8.084;2023-11-21T14:24:18;4.37;;;3.13;;
16407;SDS011;8313;49.894;8.084;2023-11-21T14:26:45;6.10;;;2.90;;
16407;SDS011;8313;49.894;8.084;2023-11-21T14:29:15;3.33;;;2.43;;
16407;SDS011;8313;49.894;8.084;2023-11-21T14:31:45;4.37;;;2.50;;
16407;SDS011;8313;49.894;8.084;2023-11-21T14:34:11;6.30;;;3.00;;
16407;SDS011;8313;49.894;8.084;2023-11-21T14:36:37;10.43;;;3.10;;
16407;SDS011;8313;49.894;8.084;2023-11-21T14:39:04;4.20;;;3.17;;
16407;SDS011;8313;49.894;8.084;2023-11-21T14:41:34;7.40;;;3.30;;
16407;SDS011;8313;49.894;8.084;2023-11-21T14:44:01;4.40;;;2.97;;
16407;SDS011;8313;49.894;8.084;2023-11-21T14:46:28;5.10;;;2.60;;
16407;SDS011;8313;49.894;8.084;2023-11-21T14:48:54;3.30;;;2.70;;
16407;SDS011;8313;49.894;8.084;2023-11-21T14:51:44;8.37;;;3.07;;
16407;SDS011;8313;49.894;8.084;2023-11-21T14:54:23;6.67;;;3.50;;
16407;SDS011;8313;49.894;8.084;2023-11-21T14:57:04;4.13;;;3.83;;
16407;SDS011;8313;49.894;8.084;2023-11-21T14:59:36;3.60;;;3.27;;
16407;SDS011;8313;49.894;8.084;2023-11-21T15:02:07;6.60;;;3.20;;
16407;SDS011;8313;49.894;8.084;2023-11-21T15:04:46;3.90;;;3.50;;
16407;SDS011;8313;49.894;8.084;2023-11-21T15:07:13;4.50;;;2.97;;
16407;SDS011;8313;49.894;8.084;2023-11-21T15:09:38;3.90;;;2.63;;
16407;SDS011;8313;49.894;8.084;2023-11-21T15:12:08;2.90;;;2.63;;
16407;SDS011;8313;49.894;8.084;2023-11-21T15:17:13;5.70;;;3.50;;
16407;SDS011;8313;49.894;8.084;2023-11-21T15:19:52;2.70;;;2.50;;
16407;SDS011;8313;49.894;8.084;2023-11-21T15:22:18;7.50;;;2.83;;
16407;SDS011;8313;49.894;8.084;2023-11-21T15:24:44;4.90;;;3.20;;
16407;SDS011;8313;49.894;8.084;2023-11-21T15:27:12;3.10;;;2.80;;
16407;SDS011;8313;49.894;8.084;2023-11-21T15:29:39;3.77;;;2.87;;